SHT16E EGLL-EGPE
Flight info
| Callsign | SHT16E |
|---|---|
| Flight time | 1h 11m |
| Altitude | 38000 |
| Route | ULTIB T420 TNT UN57 POL UN601 RIBEL DCT SHAPP DCT INREV DCT TLA DCT FOYLE N560 NESDI DCT GUSSI |
| Aircraft | A320/M-SDE3FGHIRWY/LB1 |
Departure
| Time | 2026-05-06 23:26 |
|---|---|
| Airport | London Heathrow Airport (EGLL) |
Arrival
| Time | 2026-05-07 00:37 |
|---|---|
| Airport | Inverness Airport (EGPE) |
| Time | Latitude | Longitude | Altitude | Speed | Heading |
|---|---|---|---|---|---|
| 2026-05-06 22:54 | 51.47187 | -0.48599 | 86 ft | 0 kts | 269° |
| 2026-05-06 23:16 | 51.47188 | -0.48570 | 89 ft | 4 kts | 269° |
| 2026-05-06 23:17 | 51.47188 | -0.48531 | 86 ft | 1 kts | 269° |
| 2026-05-06 23:17 | 51.47190 | -0.48495 | 86 ft | 4 kts | 240° |
| 2026-05-06 23:17 | 51.47208 | -0.48473 | 89 ft | 3 kts | 180° |
| 2026-05-06 23:17 | 51.47227 | -0.48473 | 86 ft | 0 kts | 179° |
| 2026-05-06 23:21 | 51.47224 | -0.48473 | 86 ft | 2 kts | 179° |
| 2026-05-06 23:21 | 51.47198 | -0.48473 | 86 ft | 5 kts | 179° |
| 2026-05-06 23:21 | 51.47149 | -0.48472 | 86 ft | 9 kts | 180° |
| 2026-05-06 23:22 | 51.47075 | -0.48471 | 86 ft | 12 kts | 180° |
| 2026-05-06 23:22 | 51.46978 | -0.48471 | 89 ft | 15 kts | 180° |
| 2026-05-06 23:22 | 51.46860 | -0.48469 | 86 ft | 18 kts | 179° |
| 2026-05-06 23:22 | 51.46738 | -0.48467 | 86 ft | 15 kts | 179° |
| 2026-05-06 23:23 | 51.46649 | -0.48469 | 86 ft | 10 kts | 180° |
| 2026-05-06 23:23 | 51.46616 | -0.48468 | 86 ft | 3 kts | 179° |
| 2026-05-06 23:23 | 51.46595 | -0.48467 | 86 ft | 0 kts | 179° |
| 2026-05-06 23:24 | 51.46591 | -0.48467 | 86 ft | 2 kts | 179° |
| 2026-05-06 23:24 | 51.46562 | -0.48466 | 86 ft | 6 kts | 179° |
| 2026-05-06 23:24 | 51.46508 | -0.48464 | 86 ft | 9 kts | 177° |
| 2026-05-06 23:24 | 51.46478 | -0.48384 | 89 ft | 11 kts | 88° |
| 2026-05-06 23:25 | 51.46479 | -0.48255 | 89 ft | 13 kts | 90° |
| 2026-05-06 23:25 | 51.46481 | -0.47840 | 87 ft | 72 kts | 89° |
| 2026-05-06 23:25 | 51.46486 | -0.46700 | 91 ft | 130 kts | 90° |
| 2026-05-06 23:25 | 51.46489 | -0.45004 | 165 ft | 167 kts | 89° |
| 2026-05-06 23:26 | 51.46500 | -0.43157 | 772 ft | 169 kts | 88° |
| 2026-05-06 23:26 | 51.46612 | -0.41370 | 1452 ft | 172 kts | 69° |
| 2026-05-06 23:26 | 51.47328 | -0.39717 | 1804 ft | 193 kts | 46° |
| 2026-05-06 23:26 | 51.48290 | -0.38026 | 2120 ft | 218 kts | 48° |
| 2026-05-06 23:27 | 51.49337 | -0.36087 | 2608 ft | 241 kts | 49° |
| 2026-05-06 23:27 | 51.50455 | -0.33958 | 3305 ft | 255 kts | 49° |
| 2026-05-06 23:27 | 51.51599 | -0.31745 | 4248 ft | 260 kts | 50° |
| 2026-05-06 23:27 | 51.52493 | -0.29189 | 5144 ft | 267 kts | 70° |
| 2026-05-06 23:28 | 51.53138 | -0.26350 | 5817 ft | 272 kts | 64° |
| 2026-05-06 23:28 | 51.54275 | -0.23914 | 6020 ft | 275 kts | 39° |
| 2026-05-06 23:28 | 51.55953 | -0.22551 | 6011 ft | 272 kts | 12° |
| 2026-05-06 23:28 | 51.57827 | -0.22570 | 6012 ft | 270 kts | 346° |
| 2026-05-06 23:29 | 51.59653 | -0.23332 | 6035 ft | 272 kts | 347° |
| 2026-05-06 23:29 | 51.61483 | -0.24022 | 6035 ft | 272 kts | 341° |
| 2026-05-06 23:29 | 51.63201 | -0.25292 | 6038 ft | 272 kts | 330° |
| 2026-05-06 23:29 | 51.64827 | -0.26777 | 6035 ft | 272 kts | 329° |
| 2026-05-06 23:30 | 51.66459 | -0.28320 | 6047 ft | 273 kts | 329° |
| 2026-05-06 23:30 | 51.68074 | -0.29873 | 6705 ft | 278 kts | 328° |
| 2026-05-06 23:30 | 51.69732 | -0.31473 | 7707 ft | 278 kts | 328° |
| 2026-05-06 23:30 | 51.71389 | -0.33072 | 8672 ft | 278 kts | 329° |
| 2026-05-06 23:31 | 51.73055 | -0.34683 | 9599 ft | 280 kts | 329° |
| 2026-05-06 23:31 | 51.74740 | -0.36316 | 10375 ft | 287 kts | 329° |
| 2026-05-06 23:31 | 51.76526 | -0.38045 | 10636 ft | 311 kts | 329° |
| 2026-05-06 23:31 | 51.78248 | -0.39710 | 10781 ft | 332 kts | 329° |
| 2026-05-06 23:32 | 51.80281 | -0.41671 | 11146 ft | 346 kts | 329° |
| 2026-05-06 23:32 | 51.82172 | -0.43501 | 11741 ft | 351 kts | 329° |
| 2026-05-06 23:32 | 51.84308 | -0.45571 | 12457 ft | 354 kts | 329° |
| 2026-05-06 23:32 | 51.86433 | -0.47630 | 13159 ft | 358 kts | 328° |
| 2026-05-06 23:33 | 51.88587 | -0.49719 | 13874 ft | 362 kts | 328° |
| 2026-05-06 23:33 | 51.90020 | -0.51112 | 14288 ft | 364 kts | 328° |
| 2026-05-06 23:33 | 51.92809 | -0.53833 | 15076 ft | 369 kts | 328° |
| 2026-05-06 23:33 | 51.94770 | -0.55751 | 15613 ft | 372 kts | 328° |
| 2026-05-06 23:34 | 51.96990 | -0.57927 | 16216 ft | 375 kts | 328° |
| 2026-05-06 23:34 | 51.99265 | -0.60158 | 16846 ft | 379 kts | 328° |
| 2026-05-06 23:34 | 52.01498 | -0.62344 | 17452 ft | 382 kts | 328° |
| 2026-05-06 23:34 | 52.03671 | -0.64470 | 18079 ft | 386 kts | 328° |
| 2026-05-06 23:35 | 52.05985 | -0.66736 | 18677 ft | 390 kts | 328° |
| 2026-05-06 23:35 | 52.07487 | -0.68211 | 19056 ft | 392 kts | 328° |
| 2026-05-06 23:35 | 52.09800 | -0.70485 | 19636 ft | 395 kts | 328° |
| 2026-05-06 23:35 | 52.12162 | -0.72808 | 20215 ft | 398 kts | 328° |
| 2026-05-06 23:36 | 52.13867 | -0.74485 | 20611 ft | 400 kts | 328° |
| 2026-05-06 23:36 | 52.16260 | -0.76842 | 21152 ft | 403 kts | 328° |
| 2026-05-06 23:36 | 52.18667 | -0.79218 | 21669 ft | 406 kts | 327° |
| 2026-05-06 23:36 | 52.21095 | -0.81620 | 22161 ft | 409 kts | 327° |
| 2026-05-06 23:37 | 52.22531 | -0.83042 | 22442 ft | 411 kts | 327° |
| 2026-05-06 23:37 | 52.25786 | -0.86264 | 23082 ft | 415 kts | 327° |
| 2026-05-06 23:37 | 52.28258 | -0.88718 | 23553 ft | 418 kts | 327° |
| 2026-05-06 23:37 | 52.30376 | -0.90825 | 23891 ft | 420 kts | 327° |
| 2026-05-06 23:38 | 52.31497 | -0.91942 | 24065 ft | 420 kts | 327° |
| 2026-05-06 23:38 | 52.33996 | -0.94437 | 24450 ft | 422 kts | 328° |
| 2026-05-06 23:38 | 52.36476 | -0.96914 | 24818 ft | 424 kts | 328° |
| 2026-05-06 23:38 | 52.39004 | -0.99439 | 25188 ft | 427 kts | 328° |
| 2026-05-06 23:39 | 52.41517 | -1.01949 | 25545 ft | 429 kts | 328° |
| 2026-05-06 23:39 | 52.43996 | -1.04425 | 25877 ft | 431 kts | 328° |
| 2026-05-06 23:39 | 52.46569 | -1.07002 | 26237 ft | 433 kts | 328° |
| 2026-05-06 23:39 | 52.48544 | -1.08984 | 26515 ft | 435 kts | 329° |
| 2026-05-06 23:40 | 52.50784 | -1.11345 | 26817 ft | 437 kts | 327° |
| 2026-05-06 23:40 | 52.52889 | -1.13520 | 27106 ft | 438 kts | 328° |
| 2026-05-06 23:40 | 52.55466 | -1.16107 | 27458 ft | 440 kts | 329° |
| 2026-05-06 23:40 | 52.58093 | -1.18705 | 27793 ft | 442 kts | 329° |
| 2026-05-06 23:41 | 52.60665 | -1.21242 | 28122 ft | 444 kts | 329° |
| 2026-05-06 23:41 | 52.63251 | -1.23806 | 28435 ft | 445 kts | 329° |
| 2026-05-06 23:41 | 52.65771 | -1.26326 | 28854 ft | 445 kts | 329° |
| 2026-05-06 23:41 | 52.68360 | -1.28945 | 29332 ft | 443 kts | 329° |
| 2026-05-06 23:42 | 52.70980 | -1.31615 | 29824 ft | 442 kts | 329° |
| 2026-05-06 23:42 | 52.73392 | -1.34083 | 30254 ft | 441 kts | 329° |
| 2026-05-06 23:42 | 52.75990 | -1.36749 | 30754 ft | 440 kts | 329° |
| 2026-05-06 23:42 | 52.78585 | -1.39410 | 31197 ft | 438 kts | 329° |
| 2026-05-06 23:43 | 52.81135 | -1.42020 | 31637 ft | 436 kts | 329° |
| 2026-05-06 23:43 | 52.83552 | -1.44490 | 32055 ft | 435 kts | 329° |
| 2026-05-06 23:43 | 52.85735 | -1.46724 | 32429 ft | 434 kts | 329° |
| 2026-05-06 23:43 | 52.88298 | -1.49350 | 32864 ft | 433 kts | 329° |
| 2026-05-06 23:44 | 52.90776 | -1.51895 | 33275 ft | 432 kts | 330° |
| 2026-05-06 23:44 | 52.93150 | -1.54340 | 33659 ft | 432 kts | 330° |
| 2026-05-06 23:44 | 52.95703 | -1.56968 | 34079 ft | 431 kts | 330° |
| 2026-05-06 23:44 | 52.98244 | -1.59592 | 34436 ft | 431 kts | 330° |
| 2026-05-06 23:45 | 53.00501 | -1.61926 | 34745 ft | 430 kts | 330° |
| 2026-05-06 23:45 | 53.02122 | -1.63603 | 34975 ft | 430 kts | 330° |
| 2026-05-06 23:45 | 53.04676 | -1.66190 | 35316 ft | 429 kts | 333° |
| 2026-05-06 23:45 | 53.07382 | -1.68231 | 35628 ft | 427 kts | 341° |
| 2026-05-06 23:46 | 53.10173 | -1.69944 | 35915 ft | 428 kts | 340° |
| 2026-05-06 23:46 | 53.12963 | -1.71662 | 36194 ft | 429 kts | 340° |
| 2026-05-06 23:46 | 53.15508 | -1.73238 | 36455 ft | 429 kts | 340° |
| 2026-05-06 23:46 | 53.18276 | -1.74961 | 36716 ft | 430 kts | 340° |
| 2026-05-06 23:47 | 53.20541 | -1.76379 | 36930 ft | 431 kts | 339° |
| 2026-05-06 23:47 | 53.23389 | -1.78161 | 37192 ft | 431 kts | 339° |
| 2026-05-06 23:47 | 53.26163 | -1.79892 | 37477 ft | 431 kts | 339° |
| 2026-05-06 23:47 | 53.28972 | -1.81641 | 37774 ft | 431 kts | 339° |
| 2026-05-06 23:48 | 53.31783 | -1.83394 | 38018 ft | 432 kts | 339° |
| 2026-05-06 23:48 | 53.37299 | -1.86840 | 38093 ft | 435 kts | 339° |
| 2026-05-06 23:49 | 53.42967 | -1.90401 | 38088 ft | 435 kts | 338° |
| 2026-05-06 23:49 | 53.48630 | -1.93980 | 38089 ft | 435 kts | 338° |
| 2026-05-06 23:50 | 53.54295 | -1.97573 | 38093 ft | 435 kts | 338° |
| 2026-05-06 23:50 | 53.62802 | -2.02950 | 38097 ft | 435 kts | 339° |
| 2026-05-06 23:51 | 53.68476 | -2.06547 | 38097 ft | 436 kts | 338° |
| 2026-05-06 23:51 | 53.74085 | -2.10123 | 38102 ft | 436 kts | 338° |
| 2026-05-06 23:52 | 53.79729 | -2.13863 | 38107 ft | 435 kts | 337° |
| 2026-05-06 23:52 | 53.85336 | -2.17759 | 38105 ft | 435 kts | 336° |
| 2026-05-06 23:53 | 53.90940 | -2.21655 | 38106 ft | 435 kts | 337° |
| 2026-05-06 23:53 | 53.96519 | -2.25483 | 38107 ft | 435 kts | 337° |
| 2026-05-06 23:54 | 54.02132 | -2.29326 | 38114 ft | 435 kts | 337° |
| 2026-05-06 23:54 | 54.07739 | -2.33198 | 38105 ft | 434 kts | 337° |
| 2026-05-06 23:55 | 54.13334 | -2.37070 | 38106 ft | 434 kts | 337° |
| 2026-05-06 23:55 | 54.18937 | -2.40955 | 38107 ft | 434 kts | 337° |
| 2026-05-06 23:56 | 54.24524 | -2.44837 | 38114 ft | 433 kts | 336° |
| 2026-05-06 23:56 | 54.30111 | -2.48747 | 38112 ft | 433 kts | 336° |
| 2026-05-06 23:57 | 54.35674 | -2.52642 | 38107 ft | 432 kts | 336° |
| 2026-05-06 23:57 | 54.41239 | -2.56541 | 38099 ft | 432 kts | 336° |
| 2026-05-06 23:58 | 54.46800 | -2.60461 | 38097 ft | 431 kts | 336° |
| 2026-05-06 23:58 | 54.52351 | -2.64385 | 38109 ft | 431 kts | 336° |
| 2026-05-06 23:59 | 54.57883 | -2.68304 | 38103 ft | 430 kts | 336° |
| 2026-05-06 23:59 | 54.63359 | -2.72204 | 38107 ft | 428 kts | 336° |
| 2026-05-07 00:00 | 54.68857 | -2.76132 | 38104 ft | 426 kts | 336° |
| 2026-05-07 00:00 | 54.74334 | -2.80043 | 38112 ft | 425 kts | 335° |
| 2026-05-07 00:01 | 54.79785 | -2.83944 | 38095 ft | 423 kts | 335° |
| 2026-05-07 00:01 | 54.85221 | -2.87856 | 38090 ft | 422 kts | 335° |
| 2026-05-07 00:02 | 54.90646 | -2.91768 | 38082 ft | 422 kts | 335° |
| 2026-05-07 00:02 | 54.96068 | -2.95696 | 38081 ft | 422 kts | 335° |
| 2026-05-07 00:03 | 55.01485 | -2.99620 | 38089 ft | 422 kts | 335° |
| 2026-05-07 00:03 | 55.06897 | -3.03555 | 38083 ft | 421 kts | 335° |
| 2026-05-07 00:04 | 55.12308 | -3.07513 | 38071 ft | 421 kts | 335° |
| 2026-05-07 00:04 | 55.17689 | -3.11460 | 38069 ft | 422 kts | 335° |
| 2026-05-07 00:05 | 55.23133 | -3.15447 | 38080 ft | 422 kts | 334° |
| 2026-05-07 00:05 | 55.28547 | -3.19435 | 38072 ft | 422 kts | 334° |
| 2026-05-07 00:06 | 55.33932 | -3.23407 | 38068 ft | 422 kts | 334° |
| 2026-05-07 00:06 | 55.39350 | -3.27419 | 38068 ft | 423 kts | 334° |
| 2026-05-07 00:07 | 55.44771 | -3.31446 | 38064 ft | 423 kts | 334° |
| 2026-05-07 00:07 | 55.50053 | -3.35921 | 38065 ft | 419 kts | 323° |
| 2026-05-07 00:08 | 55.54516 | -3.42482 | 38043 ft | 418 kts | 316° |
| 2026-05-07 00:08 | 55.58863 | -3.49312 | 38039 ft | 418 kts | 316° |
| 2026-05-07 00:09 | 55.63214 | -3.56156 | 38033 ft | 419 kts | 316° |
| 2026-05-07 00:09 | 55.67562 | -3.63030 | 38032 ft | 419 kts | 316° |
| 2026-05-07 00:10 | 55.71915 | -3.69922 | 38036 ft | 419 kts | 316° |
| 2026-05-07 00:10 | 55.76239 | -3.76777 | 38042 ft | 419 kts | 316° |
| 2026-05-07 00:11 | 55.80606 | -3.83756 | 38032 ft | 419 kts | 316° |
| 2026-05-07 00:11 | 55.84912 | -3.90652 | 38024 ft | 419 kts | 316° |
| 2026-05-07 00:12 | 55.89249 | -3.97613 | 38028 ft | 419 kts | 315° |
| 2026-05-07 00:12 | 55.93580 | -4.04585 | 37677 ft | 418 kts | 315° |
| 2026-05-07 00:13 | 55.95742 | -4.08062 | 37391 ft | 418 kts | 315° |
| 2026-05-07 00:13 | 55.97898 | -4.11535 | 37128 ft | 417 kts | 315° |
| 2026-05-07 00:13 | 56.00049 | -4.15013 | 36860 ft | 417 kts | 315° |
| 2026-05-07 00:13 | 56.02200 | -4.18497 | 36595 ft | 417 kts | 315° |
| 2026-05-07 00:14 | 56.04347 | -4.21992 | 36330 ft | 417 kts | 315° |
| 2026-05-07 00:14 | 56.06487 | -4.25489 | 36074 ft | 416 kts | 315° |
| 2026-05-07 00:14 | 56.08625 | -4.28986 | 35780 ft | 416 kts | 315° |
| 2026-05-07 00:14 | 56.10832 | -4.32341 | 35081 ft | 418 kts | 323° |
| 2026-05-07 00:15 | 56.13380 | -4.34909 | 34309 ft | 424 kts | 334° |
| 2026-05-07 00:15 | 56.16230 | -4.36494 | 33249 ft | 435 kts | 346° |
| 2026-05-07 00:15 | 56.19269 | -4.36922 | 32269 ft | 444 kts | 358° |
| 2026-05-07 00:15 | 56.22306 | -4.36297 | 31716 ft | 443 kts | 3° |
| 2026-05-07 00:16 | 56.25350 | -4.35558 | 31083 ft | 441 kts | 2° |
| 2026-05-07 00:16 | 56.28424 | -4.34845 | 30423 ft | 439 kts | 2° |
| 2026-05-07 00:16 | 56.31451 | -4.34151 | 29734 ft | 437 kts | 2° |
| 2026-05-07 00:16 | 56.34450 | -4.33461 | 29075 ft | 432 kts | 2° |
| 2026-05-07 00:17 | 56.37380 | -4.32779 | 28462 ft | 428 kts | 2° |
| 2026-05-07 00:17 | 56.40321 | -4.32085 | 27838 ft | 424 kts | 2° |
| 2026-05-07 00:17 | 56.43237 | -4.31389 | 27195 ft | 421 kts | 2° |
| 2026-05-07 00:17 | 56.46144 | -4.30695 | 26534 ft | 420 kts | 2° |
| 2026-05-07 00:18 | 56.49030 | -4.30003 | 26009 ft | 415 kts | 2° |
| 2026-05-07 00:18 | 56.51885 | -4.29319 | 25491 ft | 412 kts | 2° |
| 2026-05-07 00:18 | 56.54717 | -4.28639 | 24977 ft | 408 kts | 2° |
| 2026-05-07 00:18 | 56.57513 | -4.27974 | 24472 ft | 405 kts | 2° |
| 2026-05-07 00:19 | 56.60306 | -4.27307 | 23992 ft | 402 kts | 2° |
| 2026-05-07 00:19 | 56.63067 | -4.26639 | 23517 ft | 400 kts | 2° |
| 2026-05-07 00:19 | 56.65815 | -4.25977 | 23008 ft | 397 kts | 2° |
| 2026-05-07 00:19 | 56.68543 | -4.25322 | 22552 ft | 393 kts | 2° |
| 2026-05-07 00:20 | 56.71247 | -4.24674 | 22092 ft | 390 kts | 2° |
| 2026-05-07 00:20 | 56.73924 | -4.24030 | 21637 ft | 386 kts | 2° |
| 2026-05-07 00:20 | 56.76576 | -4.23389 | 21171 ft | 383 kts | 2° |
| 2026-05-07 00:20 | 56.79209 | -4.22749 | 20702 ft | 381 kts | 2° |
| 2026-05-07 00:21 | 56.81828 | -4.22106 | 20226 ft | 378 kts | 2° |
| 2026-05-07 00:21 | 56.84397 | -4.21480 | 19749 ft | 376 kts | 2° |
| 2026-05-07 00:21 | 56.86982 | -4.20853 | 19269 ft | 373 kts | 3° |
| 2026-05-07 00:21 | 56.89554 | -4.20230 | 18772 ft | 371 kts | 3° |
| 2026-05-07 00:22 | 56.92105 | -4.19609 | 18278 ft | 369 kts | 3° |
| 2026-05-07 00:22 | 56.94642 | -4.18990 | 17738 ft | 367 kts | 3° |
| 2026-05-07 00:22 | 56.97159 | -4.18374 | 17253 ft | 363 kts | 3° |
| 2026-05-07 00:22 | 56.99653 | -4.17761 | 16752 ft | 359 kts | 3° |
| 2026-05-07 00:23 | 57.02120 | -4.17150 | 16280 ft | 356 kts | 3° |
| 2026-05-07 00:23 | 57.03741 | -4.16749 | 15962 ft | 354 kts | 3° |
| 2026-05-07 00:23 | 57.06170 | -4.16147 | 15490 ft | 351 kts | 3° |
| 2026-05-07 00:23 | 57.08576 | -4.15554 | 15011 ft | 348 kts | 3° |
| 2026-05-07 00:24 | 57.10968 | -4.14967 | 14531 ft | 346 kts | 3° |
| 2026-05-07 00:24 | 57.13356 | -4.14381 | 14058 ft | 344 kts | 3° |
| 2026-05-07 00:24 | 57.15720 | -4.13797 | 13559 ft | 342 kts | 4° |
| 2026-05-07 00:24 | 57.18064 | -4.13219 | 13084 ft | 338 kts | 4° |
| 2026-05-07 00:25 | 57.20382 | -4.12645 | 12634 ft | 335 kts | 4° |
| 2026-05-07 00:25 | 57.22679 | -4.12072 | 12161 ft | 332 kts | 4° |
| 2026-05-07 00:25 | 57.24958 | -4.11505 | 11710 ft | 329 kts | 4° |
| 2026-05-07 00:25 | 57.27220 | -4.10942 | 11260 ft | 327 kts | 4° |
| 2026-05-07 00:26 | 57.29469 | -4.10381 | 10810 ft | 325 kts | 4° |
| 2026-05-07 00:26 | 57.31707 | -4.09820 | 10399 ft | 324 kts | 5° |
| 2026-05-07 00:26 | 57.33901 | -4.09266 | 10261 ft | 313 kts | 5° |
| 2026-05-07 00:26 | 57.36023 | -4.08730 | 10114 ft | 303 kts | 5° |
| 2026-05-07 00:27 | 57.38093 | -4.08208 | 9959 ft | 296 kts | 5° |
| 2026-05-07 00:27 | 57.40138 | -4.07690 | 9840 ft | 299 kts | 5° |
| 2026-05-07 00:27 | 57.42224 | -4.07163 | 9326 ft | 303 kts | 5° |
| 2026-05-07 00:27 | 57.44290 | -4.06638 | 8961 ft | 298 kts | 5° |
| 2026-05-07 00:28 | 57.46346 | -4.06118 | 8402 ft | 297 kts | 5° |
| 2026-05-07 00:28 | 57.48393 | -4.05603 | 7867 ft | 296 kts | 5° |
| 2026-05-07 00:28 | 57.50433 | -4.05092 | 7354 ft | 295 kts | 5° |
| 2026-05-07 00:28 | 57.52466 | -4.04580 | 6856 ft | 294 kts | 5° |
| 2026-05-07 00:29 | 57.54473 | -4.03848 | 6347 ft | 295 kts | 16° |
| 2026-05-07 00:29 | 57.56364 | -4.02379 | 5819 ft | 295 kts | 23° |
| 2026-05-07 00:30 | 57.61951 | -3.97706 | 4366 ft | 289 kts | 23° |
| 2026-05-07 00:30 | 57.63789 | -3.96165 | 3624 ft | 291 kts | 24° |
| 2026-05-07 00:30 | 57.65602 | -3.94643 | 3316 ft | 279 kts | 24° |
| 2026-05-07 00:30 | 57.67305 | -3.93214 | 3187 ft | 264 kts | 23° |
| 2026-05-07 00:31 | 57.68925 | -3.91821 | 3087 ft | 248 kts | 30° |
| 2026-05-07 00:31 | 57.70153 | -3.89763 | 3030 ft | 230 kts | 59° |
| 2026-05-07 00:31 | 57.70716 | -3.87128 | 2973 ft | 211 kts | 87° |
| 2026-05-07 00:31 | 57.70644 | -3.84503 | 2932 ft | 197 kts | 112° |
| 2026-05-07 00:32 | 57.70063 | -3.82268 | 2881 ft | 187 kts | 135° |
| 2026-05-07 00:32 | 57.69123 | -3.80671 | 2841 ft | 180 kts | 155° |
| 2026-05-07 00:32 | 57.67986 | -3.79829 | 2799 ft | 174 kts | 173° |
| 2026-05-07 00:32 | 57.66795 | -3.79772 | 2763 ft | 170 kts | 191° |
| 2026-05-07 00:33 | 57.65678 | -3.80462 | 2720 ft | 170 kts | 209° |
| 2026-05-07 00:33 | 57.64747 | -3.81818 | 2670 ft | 171 kts | 226° |
| 2026-05-07 00:33 | 57.63987 | -3.83518 | 2635 ft | 170 kts | 227° |
| 2026-05-07 00:33 | 57.63224 | -3.85176 | 2595 ft | 163 kts | 227° |
| 2026-05-07 00:34 | 57.62498 | -3.86754 | 2410 ft | 158 kts | 227° |
| 2026-05-07 00:34 | 57.61796 | -3.88286 | 2202 ft | 153 kts | 226° |
| 2026-05-07 00:34 | 57.61112 | -3.89780 | 1995 ft | 149 kts | 226° |
| 2026-05-07 00:34 | 57.60445 | -3.91239 | 1792 ft | 145 kts | 226° |
| 2026-05-07 00:35 | 57.59813 | -3.92622 | 1580 ft | 135 kts | 225° |
| 2026-05-07 00:35 | 57.59219 | -3.93922 | 1420 ft | 129 kts | 225° |
| 2026-05-07 00:35 | 57.58635 | -3.95193 | 1208 ft | 129 kts | 226° |
| 2026-05-07 00:35 | 57.58057 | -3.96454 | 1030 ft | 130 kts | 226° |
| 2026-05-07 00:36 | 57.57472 | -3.97730 | 835 ft | 129 kts | 227° |
| 2026-05-07 00:36 | 57.56890 | -3.99000 | 684 ft | 128 kts | 227° |
| 2026-05-07 00:36 | 57.56316 | -4.00264 | 561 ft | 128 kts | 227° |
| 2026-05-07 00:36 | 57.55743 | -4.01534 | 357 ft | 126 kts | 227° |
| 2026-05-07 00:37 | 57.55167 | -4.02756 | 210 ft | 125 kts | 226° |
| 2026-05-07 00:37 | 57.54603 | -4.03991 | 48 ft | 121 kts | 226° |
| 2026-05-07 00:37 | 57.54146 | -4.04970 | 35 ft | 65 kts | 229° |
| 2026-05-07 00:37 | 57.53942 | -4.05421 | 40 ft | 39 kts | 232° |
| 2026-05-07 00:38 | 57.53788 | -4.05760 | 41 ft | 28 kts | 229° |
| 2026-05-07 00:38 | 57.53715 | -4.05924 | 40 ft | 10 kts | 241° |
| 2026-05-07 00:38 | 57.53740 | -4.06053 | 38 ft | 13 kts | 303° |
| 2026-05-07 00:38 | 57.53784 | -4.06171 | 35 ft | 6 kts | 312° |
| 2026-05-07 00:39 | 57.53834 | -4.06180 | 36 ft | 9 kts | 15° |
| 2026-05-07 00:39 | 57.53905 | -4.06169 | 36 ft | 9 kts | 4° |
| 2026-05-07 00:39 | 57.53917 | -4.06167 | 36 ft | 0 kts | 5° |
| 2026-05-07 00:45 | 57.53957 | -4.06172 | 36 ft | 7 kts | 326° |
| 2026-05-07 00:45 | 57.53967 | -4.06240 | 36 ft | 7 kts | 275° |
| 2026-05-07 00:45 | 57.53967 | -4.06256 | 36 ft | 0 kts | 275° |